RAIN

Not for real navigation. The accuracy of this data is not assured See disclaimer for more information



ICAO NAME COUNTRY WIND Kt GUST Kt VIS m TEMP/DEW C BARO METAR
SARC Corrientes Aero. Argentina 11 0 800 14/13 30.15 SARC 271312Z 18011KT 0800 RADZ BKN005 OVC008 14/13 Q1021
VLPS 2 0 1000 25/25 29.74 VLPS 271300Z 22002KT 1000 RA BKN020 SCT050 25/25 Q1007 NOSIG
VERP 20 30 1000 34/18 29.56 VERP 271257Z 02020G30KT 1000 DU SCT025 FEW030CB BKN100 34/18 Q1001 TEMPO 0500 RA/TSRA
PAIW Wales AK United States 8 0 1200 0/-1 29.85 PAIW 271324Z AUTO 06008KT 0.75SM -SN BR 00/M01 A2985 RMK AO2 P0000 FZRANO
SBMO Maceio Aeroporto Brazil 14 0 1200 24/23 30.03 SBMO 271300Z 16014KT 1200 R12/1200 +RA BR BKN004 BKN010 BKN070 24/23 Q1017

Show more